sensor_id;sensor_type;location;lat;lon;timestamp;temperature;humidity
1626;DHT22;806;48.770;9.156;2024-02-26T00:01:50;8.70;1.00
1626;DHT22;806;48.770;9.156;2024-02-26T00:04:18;8.80;1.00
1626;DHT22;806;48.770;9.156;2024-02-26T00:06:46;8.80;1.00
1626;DHT22;806;48.770;9.156;2024-02-26T00:09:13;8.70;1.00
1626;DHT22;806;48.770;9.156;2024-02-26T00:11:40;8.70;1.00
1626;DHT22;806;48.770;9.156;2024-02-26T00:14:07;8.70;1.00
1626;DHT22;806;48.770;9.156;2024-02-26T00:16:34;8.70;1.00
1626;DHT22;806;48.770;9.156;2024-02-26T00:19:01;8.80;1.00
1626;DHT22;806;48.770;9.156;2024-02-26T00:21:28;8.90;1.00
1626;DHT22;806;48.770;9.156;2024-02-26T00:23:56;8.80;1.00
1626;DHT22;806;48.770;9.156;2024-02-26T00:26:23;8.70;1.00
1626;DHT22;806;48.770;9.156;2024-02-26T00:28:50;8.60;1.00
1626;DHT22;806;48.770;9.156;2024-02-26T00:31:16;8.50;21.90
1626;DHT22;806;48.770;9.156;2024-02-26T00:33:43;8.50;2.70
1626;DHT22;806;48.770;9.156;2024-02-26T00:36:10;8.50;11.30
1626;DHT22;806;48.770;9.156;2024-02-26T00:38:37;8.40;6.10
1626;DHT22;806;48.770;9.156;2024-02-26T00:41:06;8.40;10.20
1626;DHT22;806;48.770;9.156;2024-02-26T00:43:33;8.50;22.30
1626;DHT22;806;48.770;9.156;2024-02-26T00:46:00;8.60;39.50
1626;DHT22;806;48.770;9.156;2024-02-26T00:48:27;8.60;15.70
1626;DHT22;806;48.770;9.156;2024-02-26T00:50:54;8.70;1.00
1626;DHT22;806;48.770;9.156;2024-02-26T00:53:21;8.60;1.00
1626;DHT22;806;48.770;9.156;2024-02-26T00:55:48;8.70;1.00
1626;DHT22;806;48.770;9.156;2024-02-26T00:58:16;8.60;1.00
1626;DHT22;806;48.770;9.156;2024-02-26T01:00:44;8.60;1.00
1626;DHT22;806;48.770;9.156;2024-02-26T01:03:11;8.60;1.00
1626;DHT22;806;48.770;9.156;2024-02-26T01:05:38;8.60;1.00
1626;DHT22;806;48.770;9.156;2024-02-26T01:08:05;8.60;1.00
1626;DHT22;806;48.770;9.156;2024-02-26T01:10:32;8.70;11.30
1626;DHT22;806;48.770;9.156;2024-02-26T01:12:59;8.70;15.50
1626;DHT22;806;48.770;9.156;2024-02-26T01:15:27;8.70;1.00
1626;DHT22;806;48.770;9.156;2024-02-26T01:17:54;8.80;8.00
1626;DHT22;806;48.770;9.156;2024-02-26T01:20:21;8.80;1.00
1626;DHT22;806;48.770;9.156;2024-02-26T01:22:48;8.70;1.00
1626;DHT22;806;48.770;9.156;2024-02-26T01:25:15;8.70;21.50
1626;DHT22;806;48.770;9.156;2024-02-26T01:27:42;8.70;11.70
1626;DHT22;806;48.770;9.156;2024-02-26T01:30:10;8.80;23.40
1626;DHT22;806;48.770;9.156;2024-02-26T01:32:38;8.90;1.00
1626;DHT22;806;48.770;9.156;2024-02-26T01:35:06;8.80;1.00
1626;DHT22;806;48.770;9.156;2024-02-26T01:37:35;8.80;16.50
1626;DHT22;806;48.770;9.156;2024-02-26T01:40:03;8.90;19.40
1626;DHT22;806;48.770;9.156;2024-02-26T01:42:32;8.90;1.00
1626;DHT22;806;48.770;9.156;2024-02-26T01:44:59;8.90;11.00
1626;DHT22;806;48.770;9.156;2024-02-26T01:47:26;8.80;14.40
1626;DHT22;806;48.770;9.156;2024-02-26T01:49:55;8.70;40.80
1626;DHT22;806;48.770;9.156;2024-02-26T01:52:22;8.80;23.50
1626;DHT22;806;48.770;9.156;2024-02-26T01:54:50;8.70;7.30
1626;DHT22;806;48.770;9.156;2024-02-26T01:57:17;8.70;3.90
1626;DHT22;806;48.770;9.156;2024-02-26T01:59:44;8.60;37.50
1626;DHT22;806;48.770;9.156;2024-02-26T02:02:12;8.60;4.00
1626;DHT22;806;48.770;9.156;2024-02-26T02:04:39;8.60;1.00
1626;DHT22;806;48.770;9.156;2024-02-26T02:07:10;8.60;1.00
1626;DHT22;806;48.770;9.156;2024-02-26T02:09:37;8.50;1.00
1626;DHT22;806;48.770;9.156;2024-02-26T02:12:05;8.50;1.00
1626;DHT22;806;48.770;9.156;2024-02-26T02:14:32;8.40;1.00
1626;DHT22;806;48.770;9.156;2024-02-26T02:16:59;8.50;1.00
1626;DHT22;806;48.770;9.156;2024-02-26T02:19:26;8.50;8.60
1626;DHT22;806;48.770;9.156;2024-02-26T02:21:54;8.40;6.60
1626;DHT22;806;48.770;9.156;2024-02-26T02:24:21;8.40;10.20
1626;DHT22;806;48.770;9.156;2024-02-26T02:26:48;8.40;3.00
1626;DHT22;806;48.770;9.156;2024-02-26T02:29:15;8.40;1.00
1626;DHT22;806;48.770;9.156;2024-02-26T02:31:42;8.30;1.00
1626;DHT22;806;48.770;9.156;2024-02-26T02:34:09;8.30;1.00
1626;DHT22;806;48.770;9.156;2024-02-26T02:36:48;8.30;1.00
1626;DHT22;806;48.770;9.156;2024-02-26T02:39:17;8.40;1.00
1626;DHT22;806;48.770;9.156;2024-02-26T02:41:44;8.50;1.00
1626;DHT22;806;48.770;9.156;2024-02-26T02:44:11;8.50;1.00
1626;DHT22;806;48.770;9.156;2024-02-26T02:46:38;8.50;1.00
1626;DHT22;806;48.770;9.156;2024-02-26T02:49:08;8.60;1.00
1626;DHT22;806;48.770;9.156;2024-02-26T02:51:36;8.70;1.00
1626;DHT22;806;48.770;9.156;2024-02-26T02:54:03;8.70;1.00
1626;DHT22;806;48.770;9.156;2024-02-26T02:56:31;8.70;1.00
1626;DHT22;806;48.770;9.156;2024-02-26T02:58:58;8.80;1.00
1626;DHT22;806;48.770;9.156;2024-02-26T03:01:25;8.80;1.00
1626;DHT22;806;48.770;9.156;2024-02-26T03:03:52;8.80;1.00
1626;DHT22;806;48.770;9.156;2024-02-26T03:06:18;8.90;1.00
1626;DHT22;806;48.770;9.156;2024-02-26T03:08:46;8.80;1.00
1626;DHT22;806;48.770;9.156;2024-02-26T03:11:13;8.80;1.00
1626;DHT22;806;48.770;9.156;2024-02-26T03:13:42;8.80;1.00
1626;DHT22;806;48.770;9.156;2024-02-26T03:16:09;8.90;1.00
1626;DHT22;806;48.770;9.156;2024-02-26T03:18:38;9.00;1.00
1626;DHT22;806;48.770;9.156;2024-02-26T03:21:05;9.00;1.00
1626;DHT22;806;48.770;9.156;2024-02-26T03:23:32;9.00;1.00
1626;DHT22;806;48.770;9.156;2024-02-26T03:26:02;9.00;1.00
1626;DHT22;806;48.770;9.156;2024-02-26T03:28:29;8.90;1.00
1626;DHT22;806;48.770;9.156;2024-02-26T03:30:57;8.90;1.00
1626;DHT22;806;48.770;9.156;2024-02-26T03:33:24;8.70;1.00
1626;DHT22;806;48.770;9.156;2024-02-26T03:35:51;8.80;1.00
1626;DHT22;806;48.770;9.156;2024-02-26T03:38:18;8.80;1.00
1626;DHT22;806;48.770;9.156;2024-02-26T03:40:45;8.90;1.00
1626;DHT22;806;48.770;9.156;2024-02-26T03:43:12;8.90;1.00
1626;DHT22;806;48.770;9.156;2024-02-26T03:45:39;9.00;1.00
1626;DHT22;806;48.770;9.156;2024-02-26T03:48:07;9.00;1.00
1626;DHT22;806;48.770;9.156;2024-02-26T03:50:34;9.00;1.00
1626;DHT22;806;48.770;9.156;2024-02-26T03:53:01;9.10;21.70
1626;DHT22;806;48.770;9.156;2024-02-26T03:55:28;9.10;99.90
1626;DHT22;806;48.770;9.156;2024-02-26T03:57:55;9.10;99.90
1626;DHT22;806;48.770;9.156;2024-02-26T04:00:22;9.20;94.00
1626;DHT22;806;48.770;9.156;2024-02-26T04:02:49;9.10;72.80
1626;DHT22;806;48.770;9.156;2024-02-26T04:05:17;9.10;99.90
1626;DHT22;806;48.770;9.156;2024-02-26T04:07:44;9.10;52.80
1626;DHT22;806;48.770;9.156;2024-02-26T04:10:11;9.10;97.20
1626;DHT22;806;48.770;9.156;2024-02-26T04:12:39;9.00;99.90
1626;DHT22;806;48.770;9.156;2024-02-26T04:15:07;8.90;99.90
1626;DHT22;806;48.770;9.156;2024-02-26T04:17:35;8.80;99.90
1626;DHT22;806;48.770;9.156;2024-02-26T04:20:03;8.90;99.90
1626;DHT22;806;48.770;9.156;2024-02-26T04:22:32;9.00;99.90
1626;DHT22;806;48.770;9.156;2024-02-26T04:24:59;9.00;99.90
1626;DHT22;806;48.770;9.156;2024-02-26T04:27:26;8.90;99.90
1626;DHT22;806;48.770;9.156;2024-02-26T04:29:53;8.80;99.90
1626;DHT22;806;48.770;9.156;2024-02-26T04:32:20;8.70;99.90
1626;DHT22;806;48.770;9.156;2024-02-26T04:34:47;8.70;99.90
1626;DHT22;806;48.770;9.156;2024-02-26T04:37:14;8.70;99.90
1626;DHT22;806;48.770;9.156;2024-02-26T04:39:42;8.70;99.90
1626;DHT22;806;48.770;9.156;2024-02-26T04:42:09;8.70;99.90
1626;DHT22;806;48.770;9.156;2024-02-26T04:44:36;8.60;99.90
1626;DHT22;806;48.770;9.156;2024-02-26T04:47:03;8.60;99.90
1626;DHT22;806;48.770;9.156;2024-02-26T04:49:30;8.60;99.90
1626;DHT22;806;48.770;9.156;2024-02-26T04:51:57;8.70;99.90
1626;DHT22;806;48.770;9.156;2024-02-26T04:54:23;8.80;99.90
1626;DHT22;806;48.770;9.156;2024-02-26T04:56:52;8.90;99.90
1626;DHT22;806;48.770;9.156;2024-02-26T04:59:18;8.70;99.90
1626;DHT22;806;48.770;9.156;2024-02-26T05:01:45;8.70;99.90
1626;DHT22;806;48.770;9.156;2024-02-26T05:04:12;8.70;99.90
1626;DHT22;806;48.770;9.156;2024-02-26T05:06:39;8.50;99.90
1626;DHT22;806;48.770;9.156;2024-02-26T05:09:06;8.50;99.90
1626;DHT22;806;48.770;9.156;2024-02-26T05:11:33;8.40;99.90
1626;DHT22;806;48.770;9.156;2024-02-26T05:14:02;8.50;98.10
1626;DHT22;806;48.770;9.156;2024-02-26T05:16:29;8.40;92.80
1626;DHT22;806;48.770;9.156;2024-02-26T05:18:56;8.50;93.20
1626;DHT22;806;48.770;9.156;2024-02-26T05:21:23;8.40;99.90
1626;DHT22;806;48.770;9.156;2024-02-26T05:23:50;8.40;95.10
1626;DHT22;806;48.770;9.156;2024-02-26T05:26:20;8.40;99.90
1626;DHT22;806;48.770;9.156;2024-02-26T05:28:48;8.30;99.90
1626;DHT22;806;48.770;9.156;2024-02-26T05:31:17;8.30;99.90
1626;DHT22;806;48.770;9.156;2024-02-26T05:33:44;8.30;99.90
1626;DHT22;806;48.770;9.156;2024-02-26T05:36:18;8.30;99.90
1626;DHT22;806;48.770;9.156;2024-02-26T05:38:45;8.30;99.90
1626;DHT22;806;48.770;9.156;2024-02-26T05:41:12;8.20;99.90
1626;DHT22;806;48.770;9.156;2024-02-26T05:43:39;8.10;99.90
1626;DHT22;806;48.770;9.156;2024-02-26T05:46:06;8.10;99.90
1626;DHT22;806;48.770;9.156;2024-02-26T05:48:34;8.10;99.90
1626;DHT22;806;48.770;9.156;2024-02-26T05:51:01;8.10;1.00
1626;DHT22;806;48.770;9.156;2024-02-26T05:53:28;8.10;1.00
1626;DHT22;806;48.770;9.156;2024-02-26T05:55:58;8.10;1.00
1626;DHT22;806;48.770;9.156;2024-02-26T05:58:28;8.00;24.30
1626;DHT22;806;48.770;9.156;2024-02-26T06:00:55;8.20;99.90
1626;DHT22;806;48.770;9.156;2024-02-26T06:03:22;8.10;10.30
1626;DHT22;806;48.770;9.156;2024-02-26T06:05:50;8.10;25.90
1626;DHT22;806;48.770;9.156;2024-02-26T06:08:17;8.30;1.00
1626;DHT22;806;48.770;9.156;2024-02-26T06:10:44;8.50;99.90
1626;DHT22;806;48.770;9.156;2024-02-26T06:13:11;8.50;99.90
1626;DHT22;806;48.770;9.156;2024-02-26T06:15:38;8.80;1.00
1626;DHT22;806;48.770;9.156;2024-02-26T06:18:05;9.00;99.90
1626;DHT22;806;48.770;9.156;2024-02-26T06:20:32;8.90;50.60
1626;DHT22;806;48.770;9.156;2024-02-26T06:23:00;8.90;1.00
1626;DHT22;806;48.770;9.156;2024-02-26T06:25:27;8.70;1.00
1626;DHT22;806;48.770;9.156;2024-02-26T06:27:54;8.50;99.90
1626;DHT22;806;48.770;9.156;2024-02-26T06:30:21;8.30;1.00
1626;DHT22;806;48.770;9.156;2024-02-26T06:32:48;8.30;94.70
1626;DHT22;806;48.770;9.156;2024-02-26T06:35:15;8.40;40.70
1626;DHT22;806;48.770;9.156;2024-02-26T06:37:44;8.40;1.00
1626;DHT22;806;48.770;9.156;2024-02-26T06:40:13;8.40;1.00
1626;DHT22;806;48.770;9.156;2024-02-26T06:42:46;8.40;99.90
1626;DHT22;806;48.770;9.156;2024-02-26T06:45:13;8.50;99.90
1626;DHT22;806;48.770;9.156;2024-02-26T06:47:40;8.60;1.00
1626;DHT22;806;48.770;9.156;2024-02-26T06:50:09;8.50;1.00
1626;DHT22;806;48.770;9.156;2024-02-26T06:52:36;8.60;45.50
1626;DHT22;806;48.770;9.156;2024-02-26T06:55:03;8.90;99.90
1626;DHT22;806;48.770;9.156;2024-02-26T06:57:32;8.90;99.90
1626;DHT22;806;48.770;9.156;2024-02-26T06:59:58;8.90;1.00
1626;DHT22;806;48.770;9.156;2024-02-26T07:02:25;9.00;1.00
1626;DHT22;806;48.770;9.156;2024-02-26T07:04:52;8.90;1.00
1626;DHT22;806;48.770;9.156;2024-02-26T07:07:19;8.90;1.00
1626;DHT22;806;48.770;9.156;2024-02-26T07:09:48;8.70;1.00
1626;DHT22;806;48.770;9.156;2024-02-26T07:12:15;8.60;1.00
1626;DHT22;806;48.770;9.156;2024-02-26T07:14:44;8.50;20.10
1626;DHT22;806;48.770;9.156;2024-02-26T07:17:14;8.50;1.00
1626;DHT22;806;48.770;9.156;2024-02-26T07:19:41;8.50;99.90
1626;DHT22;806;48.770;9.156;2024-02-26T07:22:08;8.50;99.90
1626;DHT22;806;48.770;9.156;2024-02-26T07:24:35;8.40;99.90
1626;DHT22;806;48.770;9.156;2024-02-26T07:27:04;8.40;58.30
1626;DHT22;806;48.770;9.156;2024-02-26T07:29:31;8.40;1.00
1626;DHT22;806;48.770;9.156;2024-02-26T07:32:00;8.40;99.90
1626;DHT22;806;48.770;9.156;2024-02-26T07:34:28;8.50;1.00
1626;DHT22;806;48.770;9.156;2024-02-26T07:36:55;8.40;99.90
1626;DHT22;806;48.770;9.156;2024-02-26T07:39:22;8.70;1.00
1626;DHT22;806;48.770;9.156;2024-02-26T07:41:49;8.80;99.90
1626;DHT22;806;48.770;9.156;2024-02-26T07:44:18;8.80;1.00
1626;DHT22;806;48.770;9.156;2024-02-26T07:46:45;8.80;1.00
1626;DHT22;806;48.770;9.156;2024-02-26T07:49:14;8.70;12.90
1626;DHT22;806;48.770;9.156;2024-02-26T07:51:41;8.70;99.90
1626;DHT22;806;48.770;9.156;2024-02-26T07:54:08;8.80;99.90
1626;DHT22;806;48.770;9.156;2024-02-26T07:56:35;8.70;99.90
1626;DHT22;806;48.770;9.156;2024-02-26T07:59:02;8.70;99.90
1626;DHT22;806;48.770;9.156;2024-02-26T08:01:29;8.80;99.90
1626;DHT22;806;48.770;9.156;2024-02-26T08:03:56;8.90;99.90
1626;DHT22;806;48.770;9.156;2024-02-26T08:06:25;8.80;8.40
1626;DHT22;806;48.770;9.156;2024-02-26T08:08:52;8.90;99.90
1626;DHT22;806;48.770;9.156;2024-02-26T08:11:19;9.10;99.90
1626;DHT22;806;48.770;9.156;2024-02-26T08:13:46;9.30;1.00
1626;DHT22;806;48.770;9.156;2024-02-26T08:16:13;9.60;99.90
1626;DHT22;806;48.770;9.156;2024-02-26T08:18:40;9.70;99.90
1626;DHT22;806;48.770;9.156;2024-02-26T08:21:09;9.80;99.90
1626;DHT22;806;48.770;9.156;2024-02-26T08:23:38;9.80;1.00
1626;DHT22;806;48.770;9.156;2024-02-26T08:26:05;9.70;1.00
1626;DHT22;806;48.770;9.156;2024-02-26T08:28:36;9.60;1.00
1626;DHT22;806;48.770;9.156;2024-02-26T08:31:03;9.60;1.00
1626;DHT22;806;48.770;9.156;2024-02-26T08:33:31;9.60;1.00
1626;DHT22;806;48.770;9.156;2024-02-26T08:35:59;9.90;1.00
1626;DHT22;806;48.770;9.156;2024-02-26T08:38:26;10.00;1.00
1626;DHT22;806;48.770;9.156;2024-02-26T08:40:54;10.10;99.90
1626;DHT22;806;48.770;9.156;2024-02-26T08:43:24;10.20;99.90
1626;DHT22;806;48.770;9.156;2024-02-26T08:45:51;10.20;99.90
1626;DHT22;806;48.770;9.156;2024-02-26T08:48:19;9.70;99.90
1626;DHT22;806;48.770;9.156;2024-02-26T08:50:47;9.60;99.90
1626;DHT22;806;48.770;9.156;2024-02-26T08:53:14;9.40;99.90
1626;DHT22;806;48.770;9.156;2024-02-26T08:55:41;9.60;99.90
1626;DHT22;806;48.770;9.156;2024-02-26T08:58:09;9.80;99.90
1626;DHT22;806;48.770;9.156;2024-02-26T09:00:36;9.80;99.90
1626;DHT22;806;48.770;9.156;2024-02-26T09:03:03;9.90;99.90
1626;DHT22;806;48.770;9.156;2024-02-26T09:05:30;10.10;99.90
1626;DHT22;806;48.770;9.156;2024-02-26T09:07:57;10.10;99.90
1626;DHT22;806;48.770;9.156;2024-02-26T09:10:24;10.20;99.90
1626;DHT22;806;48.770;9.156;2024-02-26T09:12:51;10.40;99.90
1626;DHT22;806;48.770;9.156;2024-02-26T09:15:19;10.40;85.20
1626;DHT22;806;48.770;9.156;2024-02-26T09:17:46;10.40;22.20
1626;DHT22;806;48.770;9.156;2024-02-26T09:20:15;10.40;36.90
1626;DHT22;806;48.770;9.156;2024-02-26T09:22:45;10.60;51.10
1626;DHT22;806;48.770;9.156;2024-02-26T09:25:12;10.80;8.30
1626;DHT22;806;48.770;9.156;2024-02-26T09:27:41;10.80;28.80
1626;DHT22;806;48.770;9.156;2024-02-26T09:30:08;10.90;1.00
1626;DHT22;806;48.770;9.156;2024-02-26T09:32:37;11.00;30.10
1626;DHT22;806;48.770;9.156;2024-02-26T09:35:05;11.10;3.40
1626;DHT22;806;48.770;9.156;2024-02-26T09:37:33;11.00;1.00
1626;DHT22;806;48.770;9.156;2024-02-26T09:40:02;10.80;1.00
1626;DHT22;806;48.770;9.156;2024-02-26T09:42:31;10.80;1.00
1626;DHT22;806;48.770;9.156;2024-02-26T09:45:00;10.70;1.00
1626;DHT22;806;48.770;9.156;2024-02-26T09:47:31;10.60;1.00
1626;DHT22;806;48.770;9.156;2024-02-26T09:50:01;10.60;28.00
1626;DHT22;806;48.770;9.156;2024-02-26T09:52:31;10.70;10.70
1626;DHT22;806;48.770;9.156;2024-02-26T09:55:00;11.00;30.20
1626;DHT22;806;48.770;9.156;2024-02-26T09:57:27;11.20;32.80
1626;DHT22;806;48.770;9.156;2024-02-26T09:59:59;11.40;1.00
1626;DHT22;806;48.770;9.156;2024-02-26T10:02:32;11.30;1.00
1626;DHT22;806;48.770;9.156;2024-02-26T10:05:05;11.40;1.00
1626;DHT22;806;48.770;9.156;2024-02-26T10:07:35;11.50;1.00
1626;DHT22;806;48.770;9.156;2024-02-26T10:10:02;11.60;1.00
1626;DHT22;806;48.770;9.156;2024-02-26T10:12:30;11.60;1.00
1626;DHT22;806;48.770;9.156;2024-02-26T10:14:58;11.80;1.00
1626;DHT22;806;48.770;9.156;2024-02-26T10:17:25;11.90;1.00
1626;DHT22;806;48.770;9.156;2024-02-26T10:19:54;12.00;1.00
1626;DHT22;806;48.770;9.156;2024-02-26T10:22:23;12.10;1.00
1626;DHT22;806;48.770;9.156;2024-02-26T10:24:50;12.00;1.00
1626;DHT22;806;48.770;9.156;2024-02-26T10:27:17;12.00;1.00
1626;DHT22;806;48.770;9.156;2024-02-26T10:29:45;12.10;1.00
1626;DHT22;806;48.770;9.156;2024-02-26T10:32:13;12.20;1.00
1626;DHT22;806;48.770;9.156;2024-02-26T10:34:40;12.30;1.00
1626;DHT22;806;48.770;9.156;2024-02-26T10:37:07;12.60;1.00
1626;DHT22;806;48.770;9.156;2024-02-26T10:39:38;12.50;1.00
1626;DHT22;806;48.770;9.156;2024-02-26T10:42:05;12.70;1.00
1626;DHT22;806;48.770;9.156;2024-02-26T10:44:43;12.80;1.00
1626;DHT22;806;48.770;9.156;2024-02-26T10:47:11;12.80;1.00
1626;DHT22;806;48.770;9.156;2024-02-26T10:49:38;12.70;1.00
1626;DHT22;806;48.770;9.156;2024-02-26T10:52:06;12.80;1.00
1626;DHT22;806;48.770;9.156;2024-02-26T10:54:40;12.90;1.00
1626;DHT22;806;48.770;9.156;2024-02-26T10:57:09;13.00;1.00
1626;DHT22;806;48.770;9.156;2024-02-26T10:59:36;13.20;1.00
1626;DHT22;806;48.770;9.156;2024-02-26T11:02:04;13.30;1.00
1626;DHT22;806;48.770;9.156;2024-02-26T11:04:36;13.20;1.00
1626;DHT22;806;48.770;9.156;2024-02-26T11:07:05;13.10;1.00
1626;DHT22;806;48.770;9.156;2024-02-26T11:09:32;12.90;1.00
1626;DHT22;806;48.770;9.156;2024-02-26T11:12:01;12.90;1.00
1626;DHT22;806;48.770;9.156;2024-02-26T11:14:34;13.00;1.00
1626;DHT22;806;48.770;9.156;2024-02-26T11:17:01;13.20;1.00
1626;DHT22;806;48.770;9.156;2024-02-26T11:19:30;13.40;1.00
1626;DHT22;806;48.770;9.156;2024-02-26T11:22:00;13.60;1.00
1626;DHT22;806;48.770;9.156;2024-02-26T11:24:27;13.70;1.00
1626;DHT22;806;48.770;9.156;2024-02-26T11:26:59;13.60;1.00
1626;DHT22;806;48.770;9.156;2024-02-26T11:29:37;13.50;1.00
1626;DHT22;806;48.770;9.156;2024-02-26T11:32:05;13.30;1.00
1626;DHT22;806;48.770;9.156;2024-02-26T11:34:35;12.90;1.00
1626;DHT22;806;48.770;9.156;2024-02-26T11:37:10;12.90;1.00
1626;DHT22;806;48.770;9.156;2024-02-26T11:39:39;12.80;1.00
1626;DHT22;806;48.770;9.156;2024-02-26T11:42:07;12.90;1.00
1626;DHT22;806;48.770;9.156;2024-02-26T11:44:38;13.20;1.00
1626;DHT22;806;48.770;9.156;2024-02-26T11:47:11;13.40;1.00
1626;DHT22;806;48.770;9.156;2024-02-26T11:49:39;13.40;1.00
1626;DHT22;806;48.770;9.156;2024-02-26T11:52:08;13.40;1.00
1626;DHT22;806;48.770;9.156;2024-02-26T11:54:48;13.10;1.00
1626;DHT22;806;48.770;9.156;2024-02-26T11:57:22;13.00;1.00
1626;DHT22;806;48.770;9.156;2024-02-26T11:59:49;13.00;1.00
1626;DHT22;806;48.770;9.156;2024-02-26T12:02:45;13.20;1.00
1626;DHT22;806;48.770;9.156;2024-02-26T12:05:14;13.10;1.00
1626;DHT22;806;48.770;9.156;2024-02-26T12:07:45;13.10;1.00
1626;DHT22;806;48.770;9.156;2024-02-26T12:10:24;13.00;1.00
1626;DHT22;806;48.770;9.156;2024-02-26T12:12:58;13.10;1.00
1626;DHT22;806;48.770;9.156;2024-02-26T12:15:32;13.20;1.00
1626;DHT22;806;48.770;9.156;2024-02-26T12:18:01;13.30;1.00
1626;DHT22;806;48.770;9.156;2024-02-26T12:20:29;13.30;1.00
1626;DHT22;806;48.770;9.156;2024-02-26T12:22:56;13.20;1.00
1626;DHT22;806;48.770;9.156;2024-02-26T12:25:24;13.30;1.00
1626;DHT22;806;48.770;9.156;2024-02-26T12:27:52;13.40;1.00
1626;DHT22;806;48.770;9.156;2024-02-26T12:30:19;13.50;1.00
1626;DHT22;806;48.770;9.156;2024-02-26T12:32:47;13.70;1.00
1626;DHT22;806;48.770;9.156;2024-02-26T12:35:15;13.70;1.00
1626;DHT22;806;48.770;9.156;2024-02-26T12:37:42;13.60;1.00
1626;DHT22;806;48.770;9.156;2024-02-26T12:40:10;13.70;1.00
1626;DHT22;806;48.770;9.156;2024-02-26T12:42:38;13.70;1.00
1626;DHT22;806;48.770;9.156;2024-02-26T12:45:07;13.60;1.00
1626;DHT22;806;48.770;9.156;2024-02-26T12:47:36;13.70;1.00
1626;DHT22;806;48.770;9.156;2024-02-26T12:50:06;13.80;1.00
1626;DHT22;806;48.770;9.156;2024-02-26T12:52:37;14.10;1.00
1626;DHT22;806;48.770;9.156;2024-02-26T12:55:06;14.10;1.00
1626;DHT22;806;48.770;9.156;2024-02-26T12:57:38;14.10;1.00
1626;DHT22;806;48.770;9.156;2024-02-26T13:00:06;14.20;1.00
1626;DHT22;806;48.770;9.156;2024-02-26T13:02:35;14.30;1.00
1626;DHT22;806;48.770;9.156;2024-02-26T13:05:06;14.20;1.00
1626;DHT22;806;48.770;9.156;2024-02-26T13:07:33;14.40;1.00
1626;DHT22;806;48.770;9.156;2024-02-26T13:10:01;14.60;1.00
1626;DHT22;806;48.770;9.156;2024-02-26T13:12:27;14.70;1.00
1626;DHT22;806;48.770;9.156;2024-02-26T13:15:00;14.60;1.00
1626;DHT22;806;48.770;9.156;2024-02-26T13:17:31;14.70;1.00
1626;DHT22;806;48.770;9.156;2024-02-26T13:19:57;14.80;1.00
1626;DHT22;806;48.770;9.156;2024-02-26T13:22:26;14.80;1.00
1626;DHT22;806;48.770;9.156;2024-02-26T13:24:56;14.80;1.00
1626;DHT22;806;48.770;9.156;2024-02-26T13:27:23;14.70;1.00
1626;DHT22;806;48.770;9.156;2024-02-26T13:30:05;14.70;1.00
1626;DHT22;806;48.770;9.156;2024-02-26T13:32:36;14.80;1.00
1626;DHT22;806;48.770;9.156;2024-02-26T13:35:07;14.90;1.00
1626;DHT22;806;48.770;9.156;2024-02-26T13:37:36;14.90;1.00
1626;DHT22;806;48.770;9.156;2024-02-26T13:40:08;14.90;1.00
1626;DHT22;806;48.770;9.156;2024-02-26T13:42:35;14.80;1.00
1626;DHT22;806;48.770;9.156;2024-02-26T13:45:03;14.70;1.00
1626;DHT22;806;48.770;9.156;2024-02-26T13:47:34;14.80;1.00
1626;DHT22;806;48.770;9.156;2024-02-26T13:50:05;14.70;1.00
1626;DHT22;806;48.770;9.156;2024-02-26T13:52:32;14.70;1.00
1626;DHT22;806;48.770;9.156;2024-02-26T13:55:04;14.80;1.00
1626;DHT22;806;48.770;9.156;2024-02-26T13:57:33;14.90;1.00
1626;DHT22;806;48.770;9.156;2024-02-26T14:00:00;14.90;1.00
1626;DHT22;806;48.770;9.156;2024-02-26T14:02:27;14.90;1.00
1626;DHT22;806;48.770;9.156;2024-02-26T14:04:53;14.80;1.00
1626;DHT22;806;48.770;9.156;2024-02-26T14:07:20;14.90;1.00
1626;DHT22;806;48.770;9.156;2024-02-26T14:09:47;15.10;1.00
1626;DHT22;806;48.770;9.156;2024-02-26T14:12:17;15.20;1.00
1626;DHT22;806;48.770;9.156;2024-02-26T14:14:44;15.30;1.00
1626;DHT22;806;48.770;9.156;2024-02-26T14:17:14;15.20;1.00
1626;DHT22;806;48.770;9.156;2024-02-26T14:19:41;15.20;1.00
1626;DHT22;806;48.770;9.156;2024-02-26T14:22:11;15.10;1.00
1626;DHT22;806;48.770;9.156;2024-02-26T14:24:38;15.10;1.00
1626;DHT22;806;48.770;9.156;2024-02-26T14:27:05;15.20;1.00
1626;DHT22;806;48.770;9.156;2024-02-26T14:29:34;15.10;1.00
1626;DHT22;806;48.770;9.156;2024-02-26T14:32:00;15.10;1.00
1626;DHT22;806;48.770;9.156;2024-02-26T14:34:28;15.00;1.00
1626;DHT22;806;48.770;9.156;2024-02-26T14:36:54;15.00;1.00
1626;DHT22;806;48.770;9.156;2024-02-26T14:39:25;14.90;1.00
1626;DHT22;806;48.770;9.156;2024-02-26T14:41:52;15.00;1.00
1626;DHT22;806;48.770;9.156;2024-02-26T14:44:19;14.80;1.00
1626;DHT22;806;48.770;9.156;2024-02-26T14:46:47;14.80;1.00
1626;DHT22;806;48.770;9.156;2024-02-26T14:49:14;14.90;1.00
1626;DHT22;806;48.770;9.156;2024-02-26T14:51:41;14.90;1.00
1626;DHT22;806;48.770;9.156;2024-02-26T14:54:10;14.70;1.00
1626;DHT22;806;48.770;9.156;2024-02-26T14:56:37;14.70;1.00
1626;DHT22;806;48.770;9.156;2024-02-26T14:59:04;14.60;1.00
1626;DHT22;806;48.770;9.156;2024-02-26T15:01:31;14.80;1.00
1626;DHT22;806;48.770;9.156;2024-02-26T15:04:00;14.70;1.00
1626;DHT22;806;48.770;9.156;2024-02-26T15:06:27;14.60;1.00
1626;DHT22;806;48.770;9.156;2024-02-26T15:08:54;14.50;1.00
1626;DHT22;806;48.770;9.156;2024-02-26T15:11:22;14.40;1.00
1626;DHT22;806;48.770;9.156;2024-02-26T15:13:48;14.40;1.00
1626;DHT22;806;48.770;9.156;2024-02-26T15:16:18;14.40;1.00
1626;DHT22;806;48.770;9.156;2024-02-26T15:18:46;14.40;1.00
1626;DHT22;806;48.770;9.156;2024-02-26T15:21:14;14.30;1.00
1626;DHT22;806;48.770;9.156;2024-02-26T15:23:43;14.40;1.00
1626;DHT22;806;48.770;9.156;2024-02-26T15:26:10;14.30;1.00
1626;DHT22;806;48.770;9.156;2024-02-26T15:28:37;14.20;1.00
1626;DHT22;806;48.770;9.156;2024-02-26T15:31:04;14.20;1.00
1626;DHT22;806;48.770;9.156;2024-02-26T15:33:31;14.10;1.00
1626;DHT22;806;48.770;9.156;2024-02-26T15:35:58;14.10;1.00
1626;DHT22;806;48.770;9.156;2024-02-26T15:38:26;14.00;1.00
1626;DHT22;806;48.770;9.156;2024-02-26T15:40:54;14.10;1.00
1626;DHT22;806;48.770;9.156;2024-02-26T15:43:21;14.00;1.00
1626;DHT22;806;48.770;9.156;2024-02-26T15:45:51;14.00;1.00
1626;DHT22;806;48.770;9.156;2024-02-26T15:48:18;14.00;1.00
1626;DHT22;806;48.770;9.156;2024-02-26T15:50:44;14.00;1.00
1626;DHT22;806;48.770;9.156;2024-02-26T15:53:12;13.90;1.00
1626;DHT22;806;48.770;9.156;2024-02-26T15:55:41;13.90;1.00
1626;DHT22;806;48.770;9.156;2024-02-26T15:58:09;13.90;1.00
1626;DHT22;806;48.770;9.156;2024-02-26T16:00:39;13.80;1.00
1626;DHT22;806;48.770;9.156;2024-02-26T16:03:07;13.80;1.00
1626;DHT22;806;48.770;9.156;2024-02-26T16:05:34;13.70;1.00
1626;DHT22;806;48.770;9.156;2024-02-26T16:08:06;13.70;1.00
1626;DHT22;806;48.770;9.156;2024-02-26T16:10:34;13.70;1.00
1626;DHT22;806;48.770;9.156;2024-02-26T16:13:02;13.80;1.00
1626;DHT22;806;48.770;9.156;2024-02-26T16:15:30;13.80;1.00
1626;DHT22;806;48.770;9.156;2024-02-26T16:18:00;13.60;1.00
1626;DHT22;806;48.770;9.156;2024-02-26T16:20:27;13.60;1.00
1626;DHT22;806;48.770;9.156;2024-02-26T16:22:55;13.60;1.00
1626;DHT22;806;48.770;9.156;2024-02-26T16:25:24;13.60;1.00
1626;DHT22;806;48.770;9.156;2024-02-26T16:27:52;13.60;1.00
1626;DHT22;806;48.770;9.156;2024-02-26T16:30:20;13.50;1.00
1626;DHT22;806;48.770;9.156;2024-02-26T16:32:47;13.50;1.00
1626;DHT22;806;48.770;9.156;2024-02-26T16:35:14;13.50;1.00
1626;DHT22;806;48.770;9.156;2024-02-26T16:37:41;13.40;1.00
1626;DHT22;806;48.770;9.156;2024-02-26T16:40:08;13.40;1.00
1626;DHT22;806;48.770;9.156;2024-02-26T16:42:36;13.30;1.00
1626;DHT22;806;48.770;9.156;2024-02-26T16:45:04;13.20;1.00